createdAt,value
2022-08-05T00:00:51.305Z,97938.78
2022-08-05T00:01:52.883Z,97937.75
2022-08-05T00:02:54.490Z,97941.44
2022-08-05T00:03:57.195Z,97944.63
2022-08-05T00:04:58.871Z,97945.09
2022-08-05T00:06:04.838Z,97942.34
2022-08-05T00:07:59.451Z,97942.63
2022-08-05T00:08:43.539Z,97943.09
2022-08-05T00:09:45.048Z,97943.69
2022-08-05T00:10:47.123Z,97941.44
2022-08-05T00:11:56.034Z,97943.97
2022-08-05T00:13:01.401Z,97940.00
2022-08-05T00:14:11.981Z,97946.38
2022-08-05T00:15:56.136Z,97942.34
2022-08-05T00:16:52.476Z,97936.97
2022-08-05T00:17:55.255Z,97944.88
2022-08-05T00:18:56.775Z,97945.50
2022-08-05T00:20:02.634Z,97951.91
2022-08-05T00:21:06.935Z,97943.84
2022-08-05T00:22:11.231Z,97938.47
2022-08-05T00:23:13.307Z,97942.63
2022-08-05T00:24:18.982Z,97936.34
2022-08-05T00:25:25.887Z,97925.88
2022-08-05T00:26:27.399Z,97938.28
2022-08-05T00:27:35.967Z,97931.56
2022-08-05T00:28:38.537Z,97932.78
2022-08-05T00:29:41.438Z,97939.81
2022-08-05T00:30:44.119Z,97931.28
2022-08-05T00:32:10.678Z,97928.88
2022-08-05T00:33:07.658Z,97936.34
2022-08-05T00:34:56.127Z,97926.88
2022-08-05T00:36:16.400Z,97924.81
2022-08-05T00:37:14.208Z,97930.84
2022-08-05T00:38:16.007Z,97930.41
2022-08-05T00:39:30.402Z,97935.50
2022-08-05T00:41:01.470Z,97936.25
2022-08-05T00:42:03.114Z,97929.06
2022-08-05T00:43:07.614Z,97933.88
2022-08-05T00:44:09.165Z,97934.94
2022-08-05T00:45:13.425Z,97927.00
2022-08-05T00:46:15.128Z,97932.28
2022-08-05T00:47:17.811Z,97921.50
2022-08-05T00:48:31.463Z,97926.84
2022-08-05T00:49:44.595Z,97926.13
2022-08-05T00:50:53.215Z,97922.97
2022-08-05T00:51:54.797Z,97921.38
2022-08-05T00:52:56.891Z,97923.06
2022-08-05T00:54:02.591Z,97914.84
2022-08-05T00:55:05.138Z,97913.31
2022-08-05T00:56:07.969Z,97911.53
2022-08-05T00:57:09.654Z,97905.22
2022-08-05T00:58:12.757Z,97915.59
2022-08-05T00:59:14.755Z,97904.94
2022-08-05T01:00:17.014Z,97908.53
2022-08-05T01:01:41.959Z,97908.81
2022-08-05T01:02:40.419Z,97916.75
2022-08-05T01:03:42.865Z,97910.47
2022-08-05T01:04:44.501Z,97910.94
2022-08-05T01:05:54.501Z,97913.00
2022-08-05T01:06:56.553Z,97914.03
2022-08-05T01:08:40.218Z,97911.06
2022-08-05T01:09:20.388Z,97911.53
2022-08-05T01:10:28.691Z,97911.06
2022-08-05T01:11:37.235Z,97911.97
2022-08-05T01:12:54.365Z,97907.34
2022-08-05T01:14:15.354Z,97903.00
2022-08-05T01:15:36.328Z,97904.63
2022-08-05T01:16:47.340Z,97905.38
2022-08-05T01:18:01.077Z,97899.56
2022-08-05T01:19:36.831Z,97903.28
2022-08-05T01:21:01.742Z,97901.19
2022-08-05T01:22:37.209Z,97907.63
2022-08-05T01:24:14.572Z,97900.44
2022-08-05T01:25:40.467Z,97900.72
2022-08-05T01:27:33.031Z,97903.00
2022-08-05T01:28:45.726Z,97907.91
2022-08-05T01:29:50.437Z,97904.19
2022-08-05T01:31:10.205Z,97904.00
2022-08-05T01:32:20.342Z,97910.59
2022-08-05T01:33:35.630Z,97907.00
2022-08-05T01:34:51.088Z,97904.94
2022-08-05T01:35:57.701Z,97899.56
2022-08-05T01:37:07.899Z,97899.56
2022-08-05T01:38:14.570Z,97901.06
2022-08-05T01:39:45.525Z,97902.69
2022-08-05T01:40:48.776Z,97896.13
2022-08-05T01:41:53.243Z,97892.22
2022-08-05T01:42:56.920Z,97898.09
2022-08-05T01:44:01.907Z,97884.91
2022-08-05T01:45:08.160Z,97891.19
2022-08-05T01:46:16.264Z,97885.66
2022-08-05T01:47:20.887Z,97887.75
2022-08-05T01:48:23.869Z,97893.88
2022-08-05T01:49:27.804Z,97889.97
2022-08-05T01:50:51.511Z,97896.81
2022-08-05T01:52:01.837Z,97895.66
2022-08-05T01:53:54.696Z,97895.53
2022-08-05T01:54:53.001Z,97893.72
2022-08-05T01:56:00.105Z,97891.81
2022-08-05T01:58:10.035Z,97900.78
2022-08-05T01:58:44.666Z,97902.41
2022-08-05T01:59:49.618Z,97901.22
2022-08-05T02:00:52.286Z,97899.56
2022-08-05T02:01:56.646Z,97907.78
2022-08-05T02:03:28.992Z,97905.53
2022-08-05T02:04:36.922Z,97909.56
2022-08-05T02:05:44.964Z,97911.22
2022-08-05T02:06:50.656Z,97907.47
2022-08-05T02:08:00.269Z,97906.59
2022-08-05T02:09:04.053Z,97903.69
2022-08-05T02:10:07.969Z,97902.78
2022-08-05T02:11:12.701Z,97901.44
2022-08-05T02:12:32.869Z,97908.16
2022-08-05T02:13:53.361Z,97898.44
2022-08-05T02:15:12.429Z,97899.22
2022-08-05T02:16:22.051Z,97899.81
2022-08-05T02:18:31.138Z,97898.47
2022-08-05T02:18:58.597Z,97902.09
2022-08-05T02:20:03.733Z,97906.75
2022-08-05T02:21:15.014Z,97899.75
2022-08-05T02:22:26.775Z,97902.13
2022-08-05T02:23:33.769Z,97905.16
2022-08-05T02:24:40.746Z,97901.88
2022-08-05T02:25:49.428Z,97907.50
2022-08-05T02:26:58.046Z,97902.41
2022-08-05T02:28:01.804Z,97901.53
2022-08-05T02:29:08.066Z,97899.34
2022-08-05T02:30:26.894Z,97902.41
2022-08-05T02:31:34.768Z,97901.66
2022-08-05T02:32:39.579Z,97898.38
2022-08-05T02:33:48.329Z,97899.81
2022-08-05T02:34:54.724Z,97897.88
2022-08-05T02:36:01.208Z,97891.19
2022-08-05T02:37:05.347Z,97897.03
2022-08-05T02:38:09.148Z,97903.19
2022-08-05T02:39:12.829Z,97899.34
2022-08-05T02:40:17.386Z,97902.19
2022-08-05T02:41:21.137Z,97901.94
2022-08-05T02:42:25.836Z,97899.59
2022-08-05T02:43:29.405Z,97900.44
2022-08-05T02:44:33.817Z,97902.50
2022-08-05T02:45:52.366Z,97905.50
2022-08-05T02:46:59.995Z,97896.53
2022-08-05T02:48:11.410Z,97901.78
2022-08-05T02:49:16.026Z,97898.44
2022-08-05T02:50:18.742Z,97892.19
2022-08-05T02:51:28.502Z,97895.19
2022-08-05T02:52:45.706Z,97884.72
2022-08-05T02:53:48.561Z,97887.53
2022-08-05T02:54:57.573Z,97891.59
2022-08-05T02:56:02.197Z,97891.03
2022-08-05T02:57:10.252Z,97885.56
2022-08-05T02:58:30.978Z,97887.84
2022-08-05T02:59:47.864Z,97884.88
2022-08-05T03:00:56.170Z,97888.88
2022-08-05T03:02:00.653Z,97895.00
2022-08-05T03:03:10.413Z,97881.25
2022-08-05T03:04:14.611Z,97892.59
2022-08-05T03:05:21.796Z,97888.13
2022-08-05T03:06:55.668Z,97889.66
2022-08-05T03:08:08.589Z,97889.81
2022-08-05T03:09:17.720Z,97892.47
2022-08-05T03:10:24.465Z,97892.75
2022-08-05T03:11:55.561Z,97893.66
2022-08-05T03:12:51.749Z,97892.44
2022-08-05T03:14:03.042Z,97889.47
2022-08-05T03:15:07.748Z,97905.84
2022-08-05T03:16:10.853Z,97963.63
2022-08-05T03:17:17.215Z,97993.41
2022-08-05T03:18:18.718Z,97983.88
2022-08-05T03:19:34.610Z,97936.84
2022-08-05T03:20:37.983Z,97930.69
2022-08-05T03:21:49.730Z,97961.66
2022-08-05T03:22:53.051Z,97974.25
2022-08-05T03:23:59.444Z,97977.22
2022-08-05T03:25:11.538Z,97965.31
2022-08-05T03:26:31.755Z,97956.47
2022-08-05T03:27:59.574Z,97952.63
2022-08-05T03:28:56.273Z,97954.19
2022-08-05T03:30:08.446Z,97948.06
2022-08-05T03:31:10.862Z,97965.88
2022-08-05T03:32:20.989Z,97955.78
2022-08-05T03:33:51.031Z,97951.03
2022-08-05T03:34:54.387Z,97953.81
2022-08-05T03:35:57.979Z,97956.50
2022-08-05T03:36:59.612Z,97955.31
2022-08-05T03:38:03.054Z,97948.75
2022-08-05T03:39:08.426Z,97955.19
2022-08-05T03:40:24.186Z,97956.06
2022-08-05T03:41:38.558Z,97943.69
2022-08-05T03:42:52.271Z,97943.81
2022-08-05T03:44:09.270Z,97944.44
2022-08-05T03:45:21.999Z,97940.09
2022-08-05T03:46:26.828Z,97942.91
2022-08-05T03:47:35.221Z,97949.66
2022-08-05T03:48:37.617Z,97954.72
2022-08-05T03:49:51.070Z,97945.59
2022-08-05T03:50:53.984Z,97947.91
2022-08-05T03:52:39.331Z,97940.00
2022-08-05T03:55:34.663Z,97935.50
2022-08-05T03:56:04.086Z,97938.16
2022-08-05T03:56:38.370Z,97947.75
2022-08-05T03:57:45.863Z,97938.53
2022-08-05T03:58:51.152Z,97945.72
2022-08-05T04:00:00.303Z,97943.81
2022-08-05T04:01:06.931Z,97943.72
2022-08-05T04:02:17.292Z,97952.69
2022-08-05T04:03:38.164Z,97950.56
2022-08-05T04:04:40.728Z,97959.38
2022-08-05T04:05:47.033Z,97960.75
2022-08-05T04:06:51.311Z,97964.06
2022-08-05T04:07:57.891Z,97958.56
2022-08-05T04:09:02.122Z,97955.44
2022-08-05T04:10:03.910Z,97962.50
2022-08-05T04:11:08.730Z,97960.56
2022-08-05T04:12:24.541Z,97959.50
2022-08-05T04:13:49.370Z,97953.34
2022-08-05T04:14:49.830Z,97957.13
2022-08-05T04:16:03.036Z,97946.94
2022-08-05T04:17:08.426Z,97947.69
2022-08-05T04:18:20.466Z,97941.16
2022-08-05T04:19:28.726Z,97942.03
2022-08-05T04:20:30.213Z,97942.78
2022-08-05T04:22:08.133Z,97943.53
2022-08-05T04:22:54.935Z,97949.06
2022-08-05T04:24:06.469Z,97944.72
2022-08-05T04:25:11.135Z,97952.63
2022-08-05T04:26:15.825Z,97959.34
2022-08-05T04:27:19.858Z,97951.88
2022-08-05T04:28:40.485Z,97955.44
2022-08-05T04:29:53.161Z,97950.66
2022-08-05T04:30:54.617Z,97958.28
2022-08-05T04:31:56.739Z,97957.84
2022-08-05T04:32:58.431Z,97957.84
2022-08-05T04:34:31.710Z,97959.06
2022-08-05T04:35:21.742Z,97954.28
2022-08-05T04:36:45.098Z,97961.28
2022-08-05T04:38:02.201Z,97963.06
2022-08-05T04:39:07.722Z,97965.16
2022-08-05T04:40:10.511Z,97965.44
2022-08-05T04:41:12.083Z,97961.72
2022-08-05T04:42:13.712Z,97965.47
2022-08-05T04:43:16.560Z,97961.56
2022-08-05T04:44:21.216Z,97963.38
2022-08-05T04:45:48.925Z,97965.63
2022-08-05T04:46:54.156Z,97960.84
2022-08-05T04:48:05.771Z,97961.28
2022-08-05T04:49:12.124Z,97965.19
2022-08-05T04:50:16.293Z,97959.63
2022-08-05T04:51:37.821Z,97968.03
2022-08-05T04:52:39.290Z,97957.84
2022-08-05T04:53:40.772Z,97962.00
2022-08-05T04:54:43.362Z,97957.97
2022-08-05T04:56:14.291Z,97963.22
2022-08-05T04:57:07.943Z,97962.91
2022-08-05T04:58:12.347Z,97964.44
2022-08-05T04:59:24.252Z,97974.28
2022-08-05T05:00:38.776Z,97977.31
2022-08-05T05:02:06.899Z,97973.88
2022-08-05T05:03:03.754Z,97978.78
2022-08-05T05:04:05.998Z,97984.47
2022-08-05T05:05:16.527Z,97981.78
2022-08-05T05:06:40.089Z,97982.84
2022-08-05T05:07:53.004Z,97985.97
2022-08-05T05:08:58.189Z,97993.88
2022-08-05T05:10:05.387Z,97986.88
2022-08-05T05:11:08.206Z,97983.16
2022-08-05T05:12:09.733Z,97985.97
2022-08-05T05:13:15.796Z,97988.69
2022-08-05T05:14:17.676Z,97988.38
2022-08-05T05:15:56.762Z,97996.00
2022-08-05T05:16:51.588Z,97997.50
2022-08-05T05:17:57.575Z,98009.78
2022-08-05T05:19:18.513Z,98004.69
2022-08-05T05:20:21.032Z,98013.38
2022-08-05T05:21:27.176Z,98017.88
2022-08-05T05:22:28.795Z,98018.91
2022-08-05T05:23:39.466Z,98032.69
2022-08-05T05:24:57.319Z,98035.53
2022-08-05T05:26:01.303Z,98036.88
2022-08-05T05:27:03.154Z,98048.41
2022-08-05T05:28:05.419Z,98049.44
2022-08-05T05:29:10.108Z,98054.81
2022-08-05T05:30:30.519Z,98056.75
2022-08-05T05:32:35.390Z,98046.13
2022-08-05T05:33:57.080Z,98048.56
2022-08-05T05:34:58.385Z,98046.16
2022-08-05T05:35:59.894Z,98052.13
2022-08-05T05:37:01.632Z,98033.47
2022-08-05T05:38:09.126Z,98037.94
2022-08-05T05:39:15.216Z,98033.59
2022-08-05T05:40:25.804Z,98032.53
2022-08-05T05:41:40.390Z,98030.72
2022-08-05T05:42:47.095Z,98022.81
2022-08-05T05:43:58.607Z,98020.13
2022-08-05T05:45:03.095Z,98022.97
2022-08-05T05:46:05.148Z,98031.06
2022-08-05T05:47:21.876Z,98037.03
2022-08-05T05:48:27.742Z,98042.28
2022-08-05T05:49:29.331Z,98045.53
2022-08-05T05:50:31.046Z,98045.88
2022-08-05T05:51:50.632Z,98040.34
2022-08-05T05:52:52.380Z,98047.81
2022-08-05T05:53:58.652Z,98047.94
2022-08-05T05:55:07.430Z,98055.09
2022-08-05T05:56:14.974Z,98061.09
2022-08-05T05:57:42.886Z,98063.63
2022-08-05T05:58:49.384Z,98073.81
2022-08-05T05:59:52.450Z,98068.28
2022-08-05T06:00:54.330Z,98066.66
2022-08-05T06:01:57.492Z,98072.78
2022-08-05T06:03:01.681Z,98073.81
2022-08-05T06:04:03.932Z,98072.78
2022-08-05T06:05:10.475Z,98076.03
2022-08-05T06:06:17.952Z,98080.88
2022-08-05T06:07:22.486Z,98091.03
2022-08-05T06:08:32.600Z,98109.00
2022-08-05T06:09:50.214Z,98120.53
2022-08-05T06:10:56.093Z,98132.81
2022-08-05T06:12:01.146Z,98155.75
2022-08-05T06:13:04.974Z,98163.38
2022-08-05T06:14:07.950Z,98158.59
2022-08-05T06:15:12.408Z,98157.84
2022-08-05T06:16:28.691Z,98141.81
2022-08-05T06:17:53.159Z,98145.56
2022-08-05T06:18:55.334Z,98144.50
2022-08-05T06:19:59.758Z,98149.91
2022-08-05T06:21:01.493Z,98152.00
2022-08-05T06:22:07.718Z,98152.00
2022-08-05T06:23:10.911Z,98152.00
2022-08-05T06:24:12.873Z,98155.75
2022-08-05T06:25:50.537Z,98162.16
2022-08-05T06:26:37.852Z,98160.53
2022-08-05T06:28:10.500Z,98155.44
2022-08-05T06:29:03.466Z,98159.31
2022-08-05T06:30:17.821Z,98160.06
2022-08-05T06:31:22.711Z,98168.44
2022-08-05T06:32:33.722Z,98175.38
2022-08-05T06:34:07.455Z,98178.34
2022-08-05T06:34:58.737Z,98184.19
2022-08-05T06:36:03.380Z,98171.31
2022-08-05T06:37:09.549Z,98178.91
2022-08-05T06:38:13.822Z,98184.31
2022-08-05T06:39:15.858Z,98185.06
2022-08-05T06:40:18.426Z,98186.16
2022-08-05T06:41:23.003Z,98187.31
2022-08-05T06:42:25.371Z,98188.66
2022-08-05T06:43:58.406Z,98195.41
2022-08-05T06:44:49.288Z,98199.13
2022-08-05T06:46:04.118Z,98201.41
2022-08-05T06:47:10.368Z,98202.47
2022-08-05T06:48:47.151Z,98198.28
2022-08-05T06:50:01.566Z,98196.94
2022-08-05T06:51:09.331Z,98200.50
2022-08-05T06:52:36.727Z,98204.84
2022-08-05T06:53:33.826Z,98203.63
2022-08-05T06:54:40.975Z,98207.06
2022-08-05T06:55:42.480Z,98206.66
2022-08-05T06:56:54.656Z,98210.25
2022-08-05T06:58:19.661Z,98211.31
2022-08-05T06:59:18.523Z,98214.59
2022-08-05T07:00:24.473Z,98208.47
2022-08-05T07:01:32.412Z,98212.50
2022-08-05T07:02:41.916Z,98220.25
2022-08-05T07:03:43.712Z,98222.50
2022-08-05T07:04:45.746Z,98216.66
2022-08-05T07:05:47.768Z,98221.59
2022-08-05T07:06:51.219Z,98227.13
2022-08-05T07:07:52.681Z,98232.81
2022-08-05T07:08:55.076Z,98227.09
2022-08-05T07:09:58.526Z,98239.22
2022-08-05T07:11:00.115Z,98239.94
2022-08-05T07:12:03.688Z,98246.38
2022-08-05T07:13:57.183Z,98243.22
2022-08-05T07:15:04.174Z,98235.75
2022-08-05T07:18:00.823Z,98236.75
2022-08-05T07:18:08.431Z,98237.88
2022-08-05T07:19:11.502Z,98249.72
2022-08-05T07:20:33.036Z,98245.47
2022-08-05T07:22:00.479Z,98254.75
2022-08-05T07:22:57.030Z,98251.09
2022-08-05T07:23:59.071Z,98253.25
2022-08-05T07:25:24.012Z,98245.09
2022-08-05T07:26:25.704Z,98247.38
2022-08-05T07:28:01.480Z,98248.34
2022-08-05T07:28:50.988Z,98243.56
2022-08-05T07:30:27.149Z,98237.34
2022-08-05T07:31:13.919Z,98234.31
2022-08-05T07:32:17.192Z,98239.34
2022-08-05T07:33:36.834Z,98232.34
2022-08-05T07:34:42.277Z,98237.59
2022-08-05T07:36:01.747Z,98237.78
2022-08-05T07:37:06.912Z,98241.13
2022-08-05T07:38:26.226Z,98247.41
2022-08-05T07:40:26.359Z,98247.78
2022-08-05T07:41:02.804Z,98245.81
2022-08-05T07:42:17.988Z,98245.25
2022-08-05T07:43:33.139Z,98245.75
2022-08-05T07:44:36.721Z,98250.50
2022-08-05T07:45:57.354Z,98253.84
2022-08-05T07:46:59.674Z,98258.03
2022-08-05T07:48:01.860Z,98251.44
2022-08-05T07:49:07.760Z,98258.69
2022-08-05T07:50:09.670Z,98256.53
2022-08-05T07:51:23.461Z,98257.66
2022-08-05T07:52:32.617Z,98256.50
2022-08-05T07:53:36.622Z,98256.25
2022-08-05T07:54:41.391Z,98262.13
2022-08-05T07:56:05.277Z,98262.22
2022-08-05T07:57:18.113Z,98265.09
2022-08-05T07:58:57.583Z,98262.56
2022-08-05T07:59:52.174Z,98269.41
2022-08-05T08:00:53.827Z,98269.94
2022-08-05T08:01:57.699Z,98267.59
2022-08-05T08:03:15.450Z,98269.00
2022-08-05T08:04:17.246Z,98266.72
2022-08-05T08:05:39.478Z,98259.84
2022-08-05T08:06:41.637Z,98264.69
2022-08-05T08:07:59.523Z,98260.88
2022-08-05T08:09:02.013Z,98254.00
2022-08-05T08:10:05.532Z,98255.31
2022-08-05T08:11:08.820Z,98246.13
2022-08-05T08:12:27.357Z,98239.59
2022-08-05T08:13:49.284Z,98240.81
2022-08-05T08:14:56.900Z,98246.28
2022-08-05T08:16:49.935Z,98253.50
2022-08-05T08:17:25.650Z,98255.19
2022-08-05T08:18:29.510Z,98249.50
2022-08-05T08:20:42.703Z,98252.38
2022-08-05T08:21:02.548Z,98246.50
2022-08-05T08:22:06.502Z,98250.16
2022-08-05T08:23:59.663Z,98261.38
2022-08-05T08:24:50.956Z,98259.59
2022-08-05T08:26:00.787Z,98262.56
2022-08-05T08:27:06.910Z,98272.59
2022-08-05T08:28:11.445Z,98262.31
2022-08-05T08:29:29.431Z,98270.69
2022-08-05T08:30:47.774Z,98263.84
2022-08-05T08:31:52.224Z,98263.84
2022-08-05T08:32:53.758Z,98266.56
2022-08-05T08:33:55.208Z,98271.34
2022-08-05T08:34:57.625Z,98268.69
2022-08-05T08:36:18.462Z,98268.72
2022-08-05T08:37:21.664Z,98261.00
2022-08-05T08:38:35.338Z,98266.56
2022-08-05T08:39:38.149Z,98263.66
2022-08-05T08:40:51.714Z,98265.78
2022-08-05T08:41:59.882Z,98265.19
2022-08-05T08:44:57.872Z,98266.03
2022-08-05T08:45:20.091Z,98274.56
2022-08-05T08:45:55.288Z,98276.09
2022-08-05T08:46:57.213Z,98277.38
2022-08-05T08:48:12.822Z,98274.22
2022-08-05T08:50:13.106Z,98276.47
2022-08-05T08:51:04.209Z,98277.53
2022-08-05T08:52:14.768Z,98277.38
2022-08-05T08:53:17.033Z,98281.69
2022-08-05T08:54:18.718Z,98276.59
2022-08-05T08:56:02.035Z,98277.09
2022-08-05T08:56:47.794Z,98295.34
2022-08-05T08:57:58.476Z,98290.00
2022-08-05T08:59:09.780Z,98288.28
2022-08-05T09:00:16.718Z,98293.38
2022-08-05T09:01:22.010Z,98290.97
2022-08-05T09:02:26.727Z,98297.78
2022-08-05T09:03:40.452Z,98296.09
2022-08-05T09:04:58.558Z,98288.78
2022-08-05T09:06:09.082Z,98290.56
2022-08-05T09:07:28.283Z,98290.56
2022-08-05T09:08:30.414Z,98290.81
2022-08-05T09:09:36.215Z,98286.94
2022-08-05T09:10:46.893Z,98279.84
2022-08-05T09:11:51.155Z,98281.69
2022-08-05T09:12:57.030Z,98279.13
2022-08-05T09:14:53.900Z,98275.13
2022-08-05T09:15:28.565Z,98269.38
2022-08-05T09:16:32.252Z,98271.72
2022-08-05T09:17:40.718Z,98270.69
2022-08-05T09:18:44.711Z,98272.19
2022-08-05T09:20:01.723Z,98275.28
2022-08-05T09:21:11.541Z,98273.81
2022-08-05T09:22:31.517Z,98273.75
2022-08-05T09:23:37.464Z,98271.78
2022-08-05T09:24:58.600Z,98274.13
2022-08-05T09:26:20.568Z,98275.28
2022-08-05T09:28:05.388Z,98279.19
2022-08-05T09:29:00.712Z,98278.31
2022-08-05T09:30:06.760Z,98277.66
2022-08-05T09:31:22.570Z,98274.75
2022-08-05T09:32:42.804Z,98275.94
2022-08-05T09:33:50.997Z,98270.84
2022-08-05T09:34:55.083Z,98275.03
2022-08-05T09:36:11.767Z,98266.41
2022-08-05T09:38:12.749Z,98268.59
2022-08-05T09:39:02.486Z,98254.88
2022-08-05T09:40:05.111Z,98257.34
2022-08-05T09:41:10.457Z,98256.09
2022-08-05T09:42:24.309Z,98253.66
2022-08-05T09:43:40.618Z,98247.81
2022-08-05T09:44:49.448Z,98243.72
2022-08-05T09:46:06.465Z,98247.97
2022-08-05T09:47:20.677Z,98255.44
2022-08-05T09:48:33.595Z,98240.63
2022-08-05T09:50:00.433Z,98244.53
2022-08-05T09:51:15.316Z,98238.84
2022-08-05T09:52:17.840Z,98245.28
2022-08-05T09:53:25.810Z,98254.97
2022-08-05T09:54:32.375Z,98253.53
2022-08-05T09:55:57.524Z,98251.28
2022-08-05T09:57:01.684Z,98242.38
2022-08-05T09:58:15.093Z,98237.94
2022-08-05T09:59:17.537Z,98240.63
2022-08-05T10:00:24.571Z,98238.47
2022-08-05T10:01:32.308Z,98236.81
2022-08-05T10:02:40.334Z,98230.13
2022-08-05T10:03:58.880Z,98231.38
2022-08-05T10:05:07.877Z,98231.91
2022-08-05T10:06:15.513Z,98233.03
2022-08-05T10:07:25.043Z,98228.94
2022-08-05T10:08:42.462Z,98235.13
2022-08-05T10:10:02.763Z,98240.56
2022-08-05T10:11:17.649Z,98236.41
2022-08-05T10:12:33.222Z,98227.06
2022-08-05T10:13:45.800Z,98237.44
2022-08-05T10:14:49.442Z,98234.22
2022-08-05T10:15:58.257Z,98228.31
2022-08-05T10:17:37.908Z,98232.00
2022-08-05T10:18:37.438Z,98229.28
2022-08-05T10:20:04.240Z,98229.25
2022-08-05T10:21:06.396Z,98227.78
2022-08-05T10:22:15.674Z,98226.81
2022-08-05T10:23:55.325Z,98230.84
2022-08-05T10:24:55.446Z,98229.63
2022-08-05T10:26:00.126Z,98221.72
2022-08-05T10:27:01.772Z,98225.22
2022-08-05T10:28:16.631Z,98232.88
2022-08-05T10:30:05.700Z,98228.69
2022-08-05T10:32:52.205Z,98233.94
2022-08-05T10:32:54.801Z,98231.69
2022-08-05T10:33:34.184Z,98237.41
2022-08-05T10:34:40.894Z,98239.63
2022-08-05T10:35:44.371Z,98237.09
2022-08-05T10:36:48.152Z,98239.56
2022-08-05T10:37:51.665Z,98235.66
2022-08-05T10:39:15.179Z,98226.56
2022-08-05T10:40:45.045Z,98231.78
2022-08-05T10:41:52.812Z,98221.88
2022-08-05T10:42:59.770Z,98230.03
2022-08-05T10:44:13.263Z,98221.66
2022-08-05T10:45:23.821Z,98231.81
2022-08-05T10:46:46.568Z,98225.94
2022-08-05T10:48:30.313Z,98218.00
2022-08-05T10:49:16.444Z,98221.69
2022-08-05T10:50:28.054Z,98221.47
2022-08-05T10:51:53.039Z,98228.16
2022-08-05T10:53:01.759Z,98221.00
2022-08-05T10:54:23.138Z,98219.00
2022-08-05T10:55:25.493Z,98226.94
2022-08-05T10:56:29.481Z,98229.66
2022-08-05T10:57:33.996Z,98224.19
2022-08-05T10:58:50.501Z,98223.00
2022-08-05T11:00:13.455Z,98217.53
2022-08-05T11:02:06.217Z,98212.09
2022-08-05T11:03:22.992Z,98208.13
2022-08-05T11:04:28.251Z,98197.72
2022-08-05T11:05:34.404Z,98206.88
2022-08-05T11:06:57.300Z,98205.16
2022-08-05T11:08:12.698Z,98206.13
2022-08-05T11:09:39.109Z,98206.63
2022-08-05T11:10:57.754Z,98197.72
2022-08-05T11:12:03.985Z,98201.44
2022-08-05T11:13:06.867Z,98205.13
2022-08-05T11:14:08.782Z,98205.66
2022-08-05T11:15:20.290Z,98200.94
2022-08-05T11:16:47.902Z,98203.41
2022-08-05T11:17:59.716Z,98208.59
2022-08-05T11:20:10.285Z,98215.53
2022-08-05T11:20:52.695Z,98217.03
2022-08-05T11:22:17.217Z,98225.47
2022-08-05T11:24:04.181Z,98223.97
2022-08-05T11:26:05.272Z,98213.06
2022-08-05T11:27:45.813Z,98224.72
2022-08-05T11:28:54.500Z,98214.78
2022-08-05T11:29:59.823Z,98219.00
2022-08-05T11:31:06.322Z,98216.28
2022-08-05T11:32:28.054Z,98203.66
2022-08-05T11:33:34.555Z,98209.59
2022-08-05T11:34:52.165Z,98214.31
2022-08-05T11:36:07.464Z,98213.81
2022-08-05T11:38:28.186Z,98207.38
2022-08-05T11:38:45.647Z,98205.38
2022-08-05T11:39:55.627Z,98202.69
2022-08-05T11:41:34.611Z,98196.75
2022-08-05T11:42:29.173Z,98200.47
2022-08-05T11:44:01.054Z,98202.38
2022-08-05T11:45:00.760Z,98207.06
2022-08-05T11:46:15.212Z,98199.91
2022-08-05T11:47:49.843Z,98208.06
2022-08-05T11:48:44.675Z,98205.66
2022-08-05T11:49:50.927Z,98203.91
2022-08-05T11:50:53.632Z,98203.66
2022-08-05T11:51:57.329Z,98199.69
2022-08-05T11:53:06.326Z,98198.94
2022-08-05T11:54:13.882Z,98198.72
2022-08-05T11:55:15.621Z,98189.06
2022-08-05T11:56:17.376Z,98190.53
2022-08-05T11:57:25.914Z,98187.34
2022-08-05T11:58:35.808Z,98194.25
2022-08-05T11:59:41.388Z,98193.25
2022-08-05T12:01:02.222Z,98195.75
2022-08-05T12:02:23.848Z,98204.66
2022-08-05T12:03:31.985Z,98202.41
2022-08-05T12:04:45.993Z,98209.09
2022-08-05T12:06:03.197Z,98204.63
2022-08-05T12:07:09.287Z,98206.88
2022-08-05T12:08:18.058Z,98208.59
2022-08-05T12:09:52.905Z,98208.38
2022-08-05T12:10:49.543Z,98206.16
2022-08-05T12:11:54.226Z,98200.44
2022-08-05T12:13:04.297Z,98199.97
2022-08-05T12:14:17.659Z,98199.19
2022-08-05T12:15:20.903Z,98198.72
2022-08-05T12:16:45.417Z,98192.25
2022-08-05T12:18:03.842Z,98200.22
2022-08-05T12:20:16.634Z,98201.19
2022-08-05T12:20:38.413Z,98195.94
2022-08-05T12:21:47.810Z,98195.47
2022-08-05T12:22:51.879Z,98193.75
2022-08-05T12:24:07.200Z,98196.22
2022-08-05T12:25:09.254Z,98195.47
2022-08-05T12:26:15.814Z,98197.22
2022-08-05T12:27:25.333Z,98191.31
2022-08-05T12:28:37.898Z,98200.69
2022-08-05T12:29:39.465Z,98200.94
2022-08-05T12:30:45.894Z,98194.00
2022-08-05T12:31:53.794Z,98198.44
2022-08-05T12:32:58.658Z,98188.78
2022-08-05T12:34:09.870Z,98193.47
2022-08-05T12:35:24.554Z,98195.72
2022-08-05T12:36:38.985Z,98192.19
2022-08-05T12:37:41.009Z,98191.44
2022-08-05T12:38:45.520Z,98197.56
2022-08-05T12:39:51.415Z,98191.81
2022-08-05T12:40:54.027Z,98190.00
2022-08-05T12:42:01.996Z,98194.22
2022-08-05T12:43:07.078Z,98190.94
2022-08-05T12:44:33.012Z,98187.19
2022-08-05T12:45:42.740Z,98191.13
2022-08-05T12:46:55.883Z,98188.06
2022-08-05T12:48:01.617Z,98184.66
2022-08-05T12:49:19.322Z,98191.91
2022-08-05T12:50:26.985Z,98187.66
2022-08-05T12:52:13.116Z,98181.41
2022-08-05T12:53:05.594Z,98190.50
2022-08-05T12:54:16.883Z,98188.66
2022-08-05T12:55:32.560Z,98184.13
2022-08-05T12:56:37.224Z,98179.25
2022-08-05T12:58:38.364Z,98173.53
2022-08-05T12:59:20.871Z,98176.78
2022-08-05T13:02:03.204Z,98180.22
2022-08-05T13:02:07.331Z,98178.34
2022-08-05T13:03:12.315Z,98178.53
2022-08-05T13:04:20.973Z,98175.47
2022-08-05T13:05:24.711Z,98180.88
2022-08-05T13:06:40.848Z,98182.69
2022-08-05T13:08:00.483Z,98181.63
2022-08-05T13:09:12.537Z,98167.75
2022-08-05T13:10:20.072Z,98167.28
2022-08-05T13:11:25.620Z,98174.09
2022-08-05T13:12:51.093Z,98177.22
2022-08-05T13:14:04.698Z,98171.22
2022-08-05T13:15:16.336Z,98179.09
2022-08-05T13:16:20.294Z,98175.53
2022-08-05T13:17:31.502Z,98174.13
2022-08-05T13:18:39.181Z,98171.66
2022-08-05T13:19:52.923Z,98170.16
2022-08-05T13:20:54.543Z,98168.56
2022-08-05T13:21:56.745Z,98172.66
2022-08-05T13:22:58.319Z,98175.41
2022-08-05T13:23:59.753Z,98173.41
2022-08-05T13:25:05.437Z,98166.00
2022-08-05T13:26:07.416Z,98167.94
2022-08-05T13:27:11.094Z,98165.56
2022-08-05T13:28:20.461Z,98169.50
2022-08-05T13:29:37.547Z,98164.75
2022-08-05T13:30:39.938Z,98158.09
2022-08-05T13:32:03.900Z,98153.81
2022-08-05T13:33:04.405Z,98155.94
2022-08-05T13:34:22.896Z,98157.44
2022-08-05T13:35:43.067Z,98146.88
2022-08-05T13:36:48.567Z,98151.69
2022-08-05T13:37:55.544Z,98157.00
2022-08-05T13:38:57.412Z,98148.06
2022-08-05T13:40:14.075Z,98149.97
2022-08-05T13:41:18.843Z,98151.28
2022-08-05T13:42:22.011Z,98147.41
2022-08-05T13:43:44.915Z,98148.16
2022-08-05T13:44:51.919Z,98148.47
2022-08-05T13:45:53.701Z,98149.72
2022-08-05T13:47:02.512Z,98144.16
2022-08-05T13:48:57.114Z,98138.41
2022-08-05T13:49:31.260Z,98138.69
2022-08-05T13:50:36.841Z,98139.59
2022-08-05T13:51:40.427Z,98136.63
2022-08-05T13:52:43.154Z,98141.00